sensor_id;sensor_type;location;lat;lon;timestamp;temperature;humidity
46123;DHT22;31856;-35.404;149.120;2023-05-10T07:34:01;12.60;64.20
46123;DHT22;31856;-35.404;149.120;2023-05-10T07:36:32;12.40;64.40
46123;DHT22;31856;-35.404;149.120;2023-05-10T07:39:02;12.40;64.90
46123;DHT22;31856;-35.404;149.120;2023-05-10T07:41:32;12.30;64.90
46123;DHT22;31856;-35.404;149.120;2023-05-10T07:44:03;12.30;65.10
46123;DHT22;31856;-35.404;149.120;2023-05-10T07:46:32;12.30;65.50
46123;DHT22;31856;-35.404;149.120;2023-05-10T07:49:02;12.20;65.60
46123;DHT22;31856;-35.404;149.120;2023-05-10T07:51:31;12.10;65.80
46123;DHT22;31856;-35.404;149.120;2023-05-10T07:54:01;12.10;65.80
46123;DHT22;31856;-35.404;149.120;2023-05-10T07:56:31;12.00;66.00
46123;DHT22;31856;-35.404;149.120;2023-05-10T07:59:06;11.90;66.30
46123;DHT22;31856;-35.404;149.120;2023-05-10T08:01:38;11.80;66.20
46123;DHT22;31856;-35.404;149.120;2023-05-10T08:04:08;11.80;66.50
46123;DHT22;31856;-35.404;149.120;2023-05-10T08:06:37;11.70;66.70
46123;DHT22;31856;-35.404;149.120;2023-05-10T08:09:08;11.70;67.00
46123;DHT22;31856;-35.404;149.120;2023-05-10T08:11:38;11.60;67.20
46123;DHT22;31856;-35.404;149.120;2023-05-10T08:14:07;11.50;67.60
46123;DHT22;31856;-35.404;149.120;2023-05-10T08:16:37;11.50;67.90
46123;DHT22;31856;-35.404;149.120;2023-05-10T08:19:06;11.40;68.20
46123;DHT22;31856;-35.404;149.120;2023-05-10T08:21:36;11.30;68.30
46123;DHT22;31856;-35.404;149.120;2023-05-10T08:24:06;11.30;68.70
46123;DHT22;31856;-35.404;149.120;2023-05-10T08:26:36;11.20;68.80
46123;DHT22;31856;-35.404;149.120;2023-05-10T08:29:05;11.00;68.70
46123;DHT22;31856;-35.404;149.120;2023-05-10T08:31:35;10.90;69.20
46123;DHT22;31856;-35.404;149.120;2023-05-10T08:34:04;10.90;69.10
46123;DHT22;31856;-35.404;149.120;2023-05-10T08:36:34;10.80;69.20
46123;DHT22;31856;-35.404;149.120;2023-05-10T08:39:04;10.80;69.40
46123;DHT22;31856;-35.404;149.120;2023-05-10T08:41:55;10.80;69.80
46123;DHT22;31856;-35.404;149.120;2023-05-10T08:44:27;10.60;70.20
46123;DHT22;31856;-35.404;149.120;2023-05-10T08:46:57;10.60;70.40
46123;DHT22;31856;-35.404;149.120;2023-05-10T08:49:27;10.50;70.50
46123;DHT22;31856;-35.404;149.120;2023-05-10T08:51:59;10.50;70.70
46123;DHT22;31856;-35.404;149.120;2023-05-10T08:54:32;10.40;70.80
46123;DHT22;31856;-35.404;149.120;2023-05-10T08:57:02;10.30;71.60
46123;DHT22;31856;-35.404;149.120;2023-05-10T08:59:31;10.30;71.50
46123;DHT22;31856;-35.404;149.120;2023-05-10T09:02:01;10.30;71.80
46123;DHT22;31856;-35.404;149.120;2023-05-10T09:04:31;10.20;72.40
46123;DHT22;31856;-35.404;149.120;2023-05-10T09:07:01;10.10;72.30
46123;DHT22;31856;-35.404;149.120;2023-05-10T09:09:34;10.10;72.20
46123;DHT22;31856;-35.404;149.120;2023-05-10T09:12:04;10.10;72.20
46123;DHT22;31856;-35.404;149.120;2023-05-10T09:14:34;10.10;72.30
46123;DHT22;31856;-35.404;149.120;2023-05-10T09:17:04;10.00;72.70
46123;DHT22;31856;-35.404;149.120;2023-05-10T09:19:34;10.00;72.70
46123;DHT22;31856;-35.404;149.120;2023-05-10T09:22:03;9.90;72.60
46123;DHT22;31856;-35.404;149.120;2023-05-10T09:24:34;9.90;72.70
46123;DHT22;31856;-35.404;149.120;2023-05-10T09:27:05;9.80;73.40
46123;DHT22;31856;-35.404;149.120;2023-05-10T09:29:41;9.80;73.80
46123;DHT22;31856;-35.404;149.120;2023-05-10T09:32:12;9.80;73.60
46123;DHT22;31856;-35.404;149.120;2023-05-10T09:34:41;9.80;74.30
46123;DHT22;31856;-35.404;149.120;2023-05-10T09:37:11;9.70;74.20
46123;DHT22;31856;-35.404;149.120;2023-05-10T09:39:41;9.70;73.90
46123;DHT22;31856;-35.404;149.120;2023-05-10T09:42:11;9.60;74.10
46123;DHT22;31856;-35.404;149.120;2023-05-10T09:44:40;9.60;74.10
46123;DHT22;31856;-35.404;149.120;2023-05-10T09:47:14;9.50;74.30
46123;DHT22;31856;-35.404;149.120;2023-05-10T09:49:49;9.40;74.40
46123;DHT22;31856;-35.404;149.120;2023-05-10T09:52:19;9.40;74.20
46123;DHT22;31856;-35.404;149.120;2023-05-10T09:54:53;9.40;74.30
46123;DHT22;31856;-35.404;149.120;2023-05-10T09:57:24;9.30;74.70
46123;DHT22;31856;-35.404;149.120;2023-05-10T10:00:00;9.30;75.00
46123;DHT22;31856;-35.404;149.120;2023-05-10T10:02:30;9.30;75.00
46123;DHT22;31856;-35.404;149.120;2023-05-10T10:05:01;9.30;75.00
46123;DHT22;31856;-35.404;149.120;2023-05-10T10:07:32;9.30;75.00
46123;DHT22;31856;-35.404;149.120;2023-05-10T10:10:02;9.20;75.30
46123;DHT22;31856;-35.404;149.120;2023-05-10T10:12:33;9.20;75.10
46123;DHT22;31856;-35.404;149.120;2023-05-10T10:15:02;9.20;75.20
46123;DHT22;31856;-35.404;149.120;2023-05-10T10:17:32;9.10;75.50
46123;DHT22;31856;-35.404;149.120;2023-05-10T10:20:04;9.10;75.40
46123;DHT22;31856;-35.404;149.120;2023-05-10T10:22:37;9.10;75.30
46123;DHT22;31856;-35.404;149.120;2023-05-10T10:25:07;9.10;76.00
46123;DHT22;31856;-35.404;149.120;2023-05-10T10:35:17;9.00;76.60
46123;DHT22;31856;-35.404;149.120;2023-05-10T10:37:50;8.90;76.50
46123;DHT22;31856;-35.404;149.120;2023-05-10T10:42:53;8.90;76.50
46123;DHT22;31856;-35.404;149.120;2023-05-10T10:45:23;8.90;76.40
46123;DHT22;31856;-35.404;149.120;2023-05-10T10:50:44;8.90;76.70
46123;DHT22;31856;-35.404;149.120;2023-05-10T10:53:16;8.80;76.80
46123;DHT22;31856;-35.404;149.120;2023-05-10T10:55:46;8.80;76.50
46123;DHT22;31856;-35.404;149.120;2023-05-10T10:58:29;8.70;77.00
46123;DHT22;31856;-35.404;149.120;2023-05-10T11:01:15;8.70;76.80
46123;DHT22;31856;-35.404;149.120;2023-05-10T11:06:32;8.60;77.30
46123;DHT22;31856;-35.404;149.120;2023-05-10T11:09:10;8.50;77.10
46123;DHT22;31856;-35.404;149.120;2023-05-10T11:11:52;8.60;76.80
46123;DHT22;31856;-35.404;149.120;2023-05-10T11:14:27;8.50;77.10
46123;DHT22;31856;-35.404;149.120;2023-05-10T11:17:00;8.50;76.90
46123;DHT22;31856;-35.404;149.120;2023-05-10T11:19:31;8.50;77.40
46123;DHT22;31856;-35.404;149.120;2023-05-10T11:24:34;8.30;77.40
46123;DHT22;31856;-35.404;149.120;2023-05-10T11:27:05;8.30;77.40
46123;DHT22;31856;-35.404;149.120;2023-05-10T11:29:34;8.30;77.10
46123;DHT22;31856;-35.404;149.120;2023-05-10T13:05:49;7.20;78.00
46123;DHT22;31856;-35.404;149.120;2023-05-10T13:08:19;7.10;78.10
46123;DHT22;31856;-35.404;149.120;2023-05-10T13:10:48;7.10;78.50
46123;DHT22;31856;-35.404;149.120;2023-05-10T13:13:18;7.10;78.80
46123;DHT22;31856;-35.404;149.120;2023-05-10T13:15:47;7.10;79.20
46123;DHT22;31856;-35.404;149.120;2023-05-10T13:18:18;7.10;79.30
46123;DHT22;31856;-35.404;149.120;2023-05-10T13:20:49;7.10;79.30
46123;DHT22;31856;-35.404;149.120;2023-05-10T13:23:18;7.10;79.30
46123;DHT22;31856;-35.404;149.120;2023-05-10T13:25:48;7.00;79.00
46123;DHT22;31856;-35.404;149.120;2023-05-10T13:28:18;7.00;79.20
46123;DHT22;31856;-35.404;149.120;2023-05-10T13:30:47;7.00;79.60
46123;DHT22;31856;-35.404;149.120;2023-05-10T13:33:17;7.00;79.70
46123;DHT22;31856;-35.404;149.120;2023-05-10T13:35:46;6.90;79.80
46123;DHT22;31856;-35.404;149.120;2023-05-10T13:38:15;6.80;79.70
46123;DHT22;31856;-35.404;149.120;2023-05-10T13:40:48;6.90;79.70
46123;DHT22;31856;-35.404;149.120;2023-05-10T13:43:23;6.80;79.60
46123;DHT22;31856;-35.404;149.120;2023-05-10T13:45:52;6.80;79.50
46123;DHT22;31856;-35.404;149.120;2023-05-10T13:48:22;6.80;79.50
46123;DHT22;31856;-35.404;149.120;2023-05-10T13:50:52;6.80;79.60
46123;DHT22;31856;-35.404;149.120;2023-05-10T13:53:21;6.80;79.60
46123;DHT22;31856;-35.404;149.120;2023-05-10T13:55:51;6.80;79.80
46123;DHT22;31856;-35.404;149.120;2023-05-10T13:58:20;6.80;79.80
46123;DHT22;31856;-35.404;149.120;2023-05-10T14:00:50;6.80;79.80
46123;DHT22;31856;-35.404;149.120;2023-05-10T14:03:19;6.70;79.40
46123;DHT22;31856;-35.404;149.120;2023-05-10T16:27:25;7.30;84.20
46123;DHT22;31856;-35.404;149.120;2023-05-10T16:29:58;7.40;84.40
46123;DHT22;31856;-35.404;149.120;2023-05-10T16:32:28;7.40;84.40
46123;DHT22;31856;-35.404;149.120;2023-05-10T16:34:58;7.40;84.50
46123;DHT22;31856;-35.404;149.120;2023-05-10T16:37:28;7.50;84.70
46123;DHT22;31856;-35.404;149.120;2023-05-10T16:39:57;7.50;84.50
46123;DHT22;31856;-35.404;149.120;2023-05-10T16:42:28;7.50;84.50
46123;DHT22;31856;-35.404;149.120;2023-05-10T16:44:59;7.60;84.40
46123;DHT22;31856;-35.404;149.120;2023-05-10T16:47:35;7.60;84.30
46123;DHT22;31856;-35.404;149.120;2023-05-10T16:50:06;7.60;84.40
46123;DHT22;31856;-35.404;149.120;2023-05-10T16:52:36;7.70;84.50
46123;DHT22;31856;-35.404;149.120;2023-05-10T16:55:06;7.70;84.60
46123;DHT22;31856;-35.404;149.120;2023-05-10T16:57:35;7.70;84.70
46123;DHT22;31856;-35.404;149.120;2023-05-10T17:00:05;7.70;84.60
46123;DHT22;31856;-35.404;149.120;2023-05-10T17:02:37;7.70;84.70
46123;DHT22;31856;-35.404;149.120;2023-05-10T17:05:07;7.70;84.90
46123;DHT22;31856;-35.404;149.120;2023-05-10T17:07:36;7.70;84.70
46123;DHT22;31856;-35.404;149.120;2023-05-10T17:10:07;7.70;84.70
46123;DHT22;31856;-35.404;149.120;2023-05-10T17:12:36;7.70;84.60
46123;DHT22;31856;-35.404;149.120;2023-05-10T17:15:07;7.80;84.50
46123;DHT22;31856;-35.404;149.120;2023-05-10T17:17:38;7.80;84.50
46123;DHT22;31856;-35.404;149.120;2023-05-10T17:20:07;7.80;84.40
46123;DHT22;31856;-35.404;149.120;2023-05-10T17:22:37;7.80;83.90
46123;DHT22;31856;-35.404;149.120;2023-05-10T17:25:06;7.80;83.70
46123;DHT22;31856;-35.404;149.120;2023-05-10T17:27:37;7.80;83.80
46123;DHT22;31856;-35.404;149.120;2023-05-10T17:30:06;7.80;83.70
46123;DHT22;31856;-35.404;149.120;2023-05-10T17:32:36;7.80;83.50
46123;DHT22;31856;-35.404;149.120;2023-05-10T17:35:06;7.70;83.30
46123;DHT22;31856;-35.404;149.120;2023-05-10T17:37:36;7.70;83.30
46123;DHT22;31856;-35.404;149.120;2023-05-10T17:40:05;7.80;83.20
46123;DHT22;31856;-35.404;149.120;2023-05-10T17:42:35;7.80;83.40
46123;DHT22;31856;-35.404;149.120;2023-05-10T17:45:05;7.80;83.30
46123;DHT22;31856;-35.404;149.120;2023-05-10T17:47:35;7.80;83.40
46123;DHT22;31856;-35.404;149.120;2023-05-10T17:50:05;7.80;83.40
46123;DHT22;31856;-35.404;149.120;2023-05-10T17:52:35;7.80;83.20
46123;DHT22;31856;-35.404;149.120;2023-05-10T17:55:04;7.80;83.10
46123;DHT22;31856;-35.404;149.120;2023-05-10T17:57:36;7.80;83.20
46123;DHT22;31856;-35.404;149.120;2023-05-10T18:00:06;7.80;82.90
46123;DHT22;31856;-35.404;149.120;2023-05-10T18:02:37;7.80;83.00
46123;DHT22;31856;-35.404;149.120;2023-05-10T18:05:07;7.80;82.80
46123;DHT22;31856;-35.404;149.120;2023-05-10T18:07:38;7.80;82.70
46123;DHT22;31856;-35.404;149.120;2023-05-10T18:10:09;7.80;82.60
46123;DHT22;31856;-35.404;149.120;2023-05-10T18:12:38;7.80;82.30
46123;DHT22;31856;-35.404;149.120;2023-05-10T18:15:08;7.80;82.20
46123;DHT22;31856;-35.404;149.120;2023-05-10T18:17:38;7.80;82.40
46123;DHT22;31856;-35.404;149.120;2023-05-10T18:20:08;7.80;82.50
46123;DHT22;31856;-35.404;149.120;2023-05-10T18:22:38;7.80;82.50
46123;DHT22;31856;-35.404;149.120;2023-05-10T18:25:08;7.80;82.70
46123;DHT22;31856;-35.404;149.120;2023-05-10T18:27:37;7.80;82.40
46123;DHT22;31856;-35.404;149.120;2023-05-10T18:30:07;7.90;82.40
46123;DHT22;31856;-35.404;149.120;2023-05-10T18:32:38;7.80;82.10
46123;DHT22;31856;-35.404;149.120;2023-05-10T18:35:08;7.90;82.10
46123;DHT22;31856;-35.404;149.120;2023-05-10T18:37:38;7.90;82.00
46123;DHT22;31856;-35.404;149.120;2023-05-10T18:40:08;7.90;81.80
46123;DHT22;31856;-35.404;149.120;2023-05-10T18:42:40;7.90;82.00
46123;DHT22;31856;-35.404;149.120;2023-05-10T18:45:10;7.90;82.30
